Time;durP1;ratioP1;P1;durP2;ratioP2;P2;SDS_P1;SDS_P2;PMS_P1;PMS_P2;Temp;Humidity;BMP_temperature;BMP_pressure;BME280_temperature;BME280_humidity;BME280_pressure;Samples;Min_cycle;Max_cycle;Signal;HPM_P1;HPM_P2
2021/07/16 00:00:54;;;;;;;7.80;7.30;;;;;;;;;;5090470;28;24406;-54
2021/07/16 00:03:20;;;;;;;7.60;7.10;;;;;;;;;;5087403;28;24971;-54
2021/07/16 00:05:45;;;;;;;7.70;7.20;;;;;;;;;;5089075;28;24431;-54
2021/07/16 00:08:10;;;;;;;7.53;7.03;;;;;;;;;;5089252;28;24979;-54
2021/07/16 00:10:35;;;;;;;7.40;7.00;;;;;;;;;;5101357;28;25048;-54
2021/07/16 00:13:00;;;;;;;8.50;7.70;;;;;;;;;;5097561;28;24451;-54
2021/07/16 00:15:25;;;;;;;7.53;7.03;;;;;;;;;;5109085;28;24966;-54
2021/07/16 00:17:50;;;;;;;7.93;7.32;;;;;;;;;;5105716;28;24426;-54
2021/07/16 00:20:16;;;;;;;8.43;7.93;;;;;;;;;;5088816;28;24402;-54
2021/07/16 00:22:41;;;;;;;8.10;7.50;;;;;;;;;;5094908;28;24414;-55
2021/07/16 00:25:07;;;;;;;8.20;7.60;;;;;;;;;;5086224;28;24425;-54
2021/07/16 00:27:33;;;;;;;8.70;8.00;;;;;;;;;;5107743;28;25276;-54
2021/07/16 00:29:58;;;;;;;8.30;7.70;;;;;;;;;;5109061;28;24756;-54
2021/07/16 00:32:23;;;;;;;7.03;6.53;;;;;;;;;;5098574;28;24422;-54
2021/07/16 00:34:49;;;;;;;7.85;7.35;;;;;;;;;;5088233;28;24491;-54
2021/07/16 00:37:14;;;;;;;8.57;7.97;;;;;;;;;;5092161;28;24410;-54
2021/07/16 00:39:39;;;;;;;8.60;7.90;;;;;;;;;;5095895;28;25283;-54
2021/07/16 00:42:04;;;;;;;8.10;7.50;;;;;;;;;;5095953;28;24402;-54
2021/07/16 00:44:32;;;;;;;7.40;6.90;;;;;;;;;;5098267;28;25015;-54
2021/07/16 00:46:57;;;;;;;7.80;7.30;;;;;;;;;;5107082;28;24761;-55
2021/07/16 00:49:22;;;;;;;8.40;7.80;;;;;;;;;;5094228;28;25042;-54
2021/07/16 00:51:47;;;;;;;8.30;7.70;;;;;;;;;;5088580;28;24497;-54
2021/07/16 00:54:12;;;;;;;7.80;7.30;;;;;;;;;;5084955;28;24456;-54
2021/07/16 00:56:38;;;;;;;8.50;8.00;;;;;;;;;;5075793;28;24545;-53
2021/07/16 00:59:04;;;;;;;8.90;8.20;;;;;;;;;;5095479;28;24421;-53
2021/07/16 01:01:29;;;;;;;8.68;8.07;;;;;;;;;;5101352;28;24420;-53
2021/07/16 01:03:54;;;;;;;9.40;8.80;;;;;;;;;;5096081;28;24763;-53
2021/07/16 01:06:19;;;;;;;8.60;8.00;;;;;;;;;;5086012;28;24545;-53
2021/07/16 01:08:44;;;;;;;9.50;8.88;;;;;;;;;;5105684;28;24410;-53
2021/07/16 01:11:09;;;;;;;8.80;8.10;;;;;;;;;;5093334;28;24570;-53
2021/07/16 01:13:35;;;;;;;8.80;8.20;;;;;;;;;;5092832;28;25025;-53
2021/07/16 01:16:00;;;;;;;9.60;8.80;;;;;;;;;;5092060;28;24433;-53
2021/07/16 01:18:25;;;;;;;8.70;8.10;;;;;;;;;;5087270;28;24480;-53
2021/07/16 01:20:50;;;;;;;8.98;8.38;;;;;;;;;;5093278;28;24410;-53
2021/07/16 01:23:17;;;;;;;8.40;7.90;;;;;;;;;;5088500;28;24956;-53
2021/07/16 01:25:42;;;;;;;9.27;8.68;;;;;;;;;;5108348;28;24397;-54
2021/07/16 01:28:07;;;;;;;8.95;8.35;;;;;;;;;;5089672;28;24429;-55
2021/07/16 01:30:33;;;;;;;8.90;8.30;;;;;;;;;;5106016;28;24413;-54
2021/07/16 01:33:00;;;;;;;8.05;7.55;;;;;;;;;;5092107;28;24433;-54
2021/07/16 01:35:26;;;;;;;8.90;8.20;;;;;;;;;;5088320;28;24430;-55
2021/07/16 01:37:52;;;;;;;8.60;8.00;;;;;;;;;;5087760;28;24389;-54
2021/07/16 01:40:18;;;;;;;7.70;7.30;;;;;;;;;;5093154;28;24416;-55
2021/07/16 01:42:45;;;;;;;8.98;8.38;;;;;;;;;;5075736;28;24427;-54
2021/07/16 01:45:11;;;;;;;8.70;8.10;;;;;;;;;;5104024;28;24809;-54
2021/07/16 01:47:42;;;;;;;9.50;8.80;;;;;;;;;;5091112;28;24502;-55
2021/07/16 01:50:07;;;;;;;9.63;8.93;;;;;;;;;;5104578;28;24417;-56
2021/07/16 01:52:32;;;;;;;9.00;8.40;;;;;;;;;;5099695;28;24437;-54
2021/07/16 01:54:58;;;;;;;8.90;8.30;;;;;;;;;;5097983;28;24971;-55
2021/07/16 01:57:23;;;;;;;9.90;9.27;;;;;;;;;;5071043;28;24411;-55
2021/07/16 01:59:48;;;;;;;10.38;9.57;;;;;;;;;;5085192;28;24982;-55
2021/07/16 02:02:15;;;;;;;9.85;9.15;;;;;;;;;;5094452;28;24406;-55
2021/07/16 02:04:40;;;;;;;10.40;9.70;;;;;;;;;;5071896;28;24414;-55
2021/07/16 02:07:06;;;;;;;9.25;8.60;;;;;;;;;;5078755;28;24407;-55
2021/07/16 02:09:31;;;;;;;9.30;8.70;;;;;;;;;;5091710;28;24414;-54
2021/07/16 02:11:58;;;;;;;10.37;9.67;;;;;;;;;;5093233;28;24947;-55
2021/07/16 02:14:24;;;;;;;8.60;8.10;;;;;;;;;;5079498;28;24573;-54
2021/07/16 02:16:49;;;;;;;10.23;9.43;;;;;;;;;;5097894;28;24524;-55
2021/07/16 02:19:14;;;;;;;9.65;8.95;;;;;;;;;;5097013;28;24410;-54
2021/07/16 02:21:39;;;;;;;10.32;9.63;;;;;;;;;;5094205;28;24495;-54
2021/07/16 02:24:04;;;;;;;10.45;9.60;;;;;;;;;;5084405;28;24414;-55
2021/07/16 02:26:29;;;;;;;9.70;9.00;;;;;;;;;;5092741;28;24429;-55
2021/07/16 02:28:54;;;;;;;9.10;8.50;;;;;;;;;;5102897;28;24468;-55
2021/07/16 02:31:20;;;;;;;8.80;8.30;;;;;;;;;;5098309;28;24429;-55
2021/07/16 02:33:45;;;;;;;8.75;8.23;;;;;;;;;;5095922;28;24460;-55
2021/07/16 02:36:10;;;;;;;8.97;8.37;;;;;;;;;;5073341;28;24423;-55
2021/07/16 02:38:35;;;;;;;9.80;9.10;;;;;;;;;;5089168;28;24413;-54
2021/07/16 02:41:00;;;;;;;9.77;9.07;;;;;;;;;;5101386;28;24428;-55
2021/07/16 02:43:26;;;;;;;9.67;8.80;;;;;;;;;;5096904;28;24414;-54
2021/07/16 02:45:52;;;;;;;8.93;8.32;;;;;;;;;;5098206;28;24448;-54
2021/07/16 02:48:17;;;;;;;10.18;9.55;;;;;;;;;;5091679;28;24698;-54
2021/07/16 02:50:44;;;;;;;10.77;10.07;;;;;;;;;;5080859;28;24471;-56
2021/07/16 02:53:10;;;;;;;9.45;8.75;;;;;;;;;;5094143;28;24797;-55
2021/07/16 02:55:36;;;;;;;9.87;9.17;;;;;;;;;;5105483;27;24537;-55
2021/07/16 02:58:01;;;;;;;8.20;7.70;;;;;;;;;;5073754;28;24513;-55
2021/07/16 03:00:29;;;;;;;8.60;8.10;;;;;;;;;;5073005;28;24406;-54
2021/07/16 03:02:54;;;;;;;8.60;8.10;;;;;;;;;;5104649;28;24971;-55
2021/07/16 03:05:21;;;;;;;9.00;8.40;;;;;;;;;;5082268;28;24430;-55
2021/07/16 03:07:46;;;;;;;9.02;8.43;;;;;;;;;;5073620;28;24418;-55
2021/07/16 03:10:14;;;;;;;9.53;8.93;;;;;;;;;;5096298;28;24425;-55
2021/07/16 03:12:39;;;;;;;11.75;10.75;;;;;;;;;;5107175;28;24509;-55
2021/07/16 03:15:09;;;;;;;10.90;10.10;;;;;;;;;;5089564;28;24525;-55
2021/07/16 03:17:36;;;;;;;9.80;9.05;;;;;;;;;;5087585;27;24456;-55
2021/07/16 03:20:03;;;;;;;8.40;7.80;;;;;;;;;;5087997;28;24407;-53
2021/07/16 03:22:28;;;;;;;8.85;8.20;;;;;;;;;;5082034;28;24524;-53
2021/07/16 03:24:53;;;;;;;9.13;8.43;;;;;;;;;;5086603;28;24498;-53
2021/07/16 03:27:18;;;;;;;8.10;7.50;;;;;;;;;;5078751;28;24438;-53
2021/07/16 03:29:44;;;;;;;9.90;9.20;;;;;;;;;;5083969;28;24414;-52
2021/07/16 03:32:09;;;;;;;8.63;8.10;;;;;;;;;;5075978;28;24420;-54
2021/07/16 03:34:34;;;;;;;8.30;7.80;;;;;;;;;;5091806;28;24570;-54
2021/07/16 03:36:59;;;;;;;8.27;7.75;;;;;;;;;;5085344;28;24425;-54
2021/07/16 03:39:24;;;;;;;8.60;8.00;;;;;;;;;;5075787;28;24418;-54
2021/07/16 03:41:49;;;;;;;8.77;8.10;;;;;;;;;;5079375;28;24848;-54
2021/07/16 03:44:14;;;;;;;7.80;7.30;;;;;;;;;;5076427;28;24411;-54
2021/07/16 03:46:40;;;;;;;8.00;7.40;;;;;;;;;;5086414;28;25011;-54
2021/07/16 03:49:05;;;;;;;10.00;9.00;;;;;;;;;;5079545;28;24464;-54
2021/07/16 03:51:30;;;;;;;10.20;9.30;;;;;;;;;;5082097;28;24475;-55
2021/07/16 03:53:55;;;;;;;9.37;8.70;;;;;;;;;;5089587;28;24567;-55
2021/07/16 03:56:20;;;;;;;8.35;7.75;;;;;;;;;;5070412;28;24433;-53
2021/07/16 03:58:46;;;;;;;9.82;9.00;;;;;;;;;;5087482;28;24414;-54
2021/07/16 04:01:11;;;;;;;8.57;7.83;;;;;;;;;;5075454;28;24407;-53
2021/07/16 04:03:37;;;;;;;8.95;8.35;;;;;;;;;;5082220;28;24499;-53
2021/07/16 04:06:02;;;;;;;9.93;9.32;;;;;;;;;;5096382;28;24428;-55
2021/07/16 04:08:27;;;;;;;9.55;8.85;;;;;;;;;;5091703;28;24430;-54
2021/07/16 04:10:52;;;;;;;9.38;8.68;;;;;;;;;;5082651;28;24833;-54
2021/07/16 04:13:17;;;;;;;9.38;8.77;;;;;;;;;;5074189;28;24468;-54
2021/07/16 04:15:43;;;;;;;8.00;7.40;;;;;;;;;;5071164;28;24446;-56
2021/07/16 04:18:09;;;;;;;7.82;7.32;;;;;;;;;;5079695;28;24448;-55
2021/07/16 04:20:35;;;;;;;8.48;7.82;;;;;;;;;;5075660;28;24418;-55
2021/07/16 04:23:01;;;;;;;8.35;7.85;;;;;;;;;;5090143;28;24421;-55
2021/07/16 04:25:26;;;;;;;7.40;6.90;;;;;;;;;;5092526;28;24442;-56
2021/07/16 04:27:53;;;;;;;7.50;7.00;;;;;;;;;;5090870;28;24448;-56
2021/07/16 04:30:19;;;;;;;6.93;6.32;;;;;;;;;;5096414;28;24606;-56
2021/07/16 04:32:45;;;;;;;6.65;6.25;;;;;;;;;;5090570;28;24418;-56
2021/07/16 04:35:11;;;;;;;7.00;6.50;;;;;;;;;;5089376;28;24429;-56
2021/07/16 04:37:36;;;;;;;7.23;6.73;;;;;;;;;;5085833;28;24425;-56
2021/07/16 04:40:05;;;;;;;5.60;5.30;;;;;;;;;;5086301;28;24485;-54
2021/07/16 04:42:30;;;;;;;5.80;5.50;;;;;;;;;;5086160;28;24781;-55
2021/07/16 04:44:55;;;;;;;6.37;5.97;;;;;;;;;;5085883;28;24395;-55
2021/07/16 04:47:20;;;;;;;7.80;7.20;;;;;;;;;;5086685;28;24819;-55
2021/07/16 04:49:46;;;;;;;6.47;6.07;;;;;;;;;;5086249;28;24433;-56
2021/07/16 04:52:11;;;;;;;6.50;6.00;;;;;;;;;;5096532;28;24987;-55
2021/07/16 04:54:36;;;;;;;5.90;5.40;;;;;;;;;;5073390;28;24449;-55
2021/07/16 04:57:02;;;;;;;6.43;5.93;;;;;;;;;;5086250;28;24414;-55
2021/07/16 04:59:27;;;;;;;5.30;5.00;;;;;;;;;;5094826;28;24433;-55
2021/07/16 05:01:52;;;;;;;4.97;4.57;;;;;;;;;;5085002;28;24468;-56
2021/07/16 05:04:18;;;;;;;4.40;4.10;;;;;;;;;;5082121;28;24414;-56
2021/07/16 05:06:43;;;;;;;4.40;4.00;;;;;;;;;;5091544;28;24476;-56
2021/07/16 05:09:08;;;;;;;4.30;4.00;;;;;;;;;;5086303;28;24406;-55
2021/07/16 05:11:33;;;;;;;4.80;4.50;;;;;;;;;;5083164;28;24531;-55
2021/07/16 05:13:59;;;;;;;4.50;4.20;;;;;;;;;;5089503;28;24978;-55
2021/07/16 05:16:24;;;;;;;5.20;4.70;;;;;;;;;;5079420;28;24873;-55
2021/07/16 05:18:49;;;;;;;6.30;5.70;;;;;;;;;;5087292;28;24511;-55
2021/07/16 05:21:14;;;;;;;5.10;4.60;;;;;;;;;;5084311;28;24531;-55
2021/07/16 05:23:40;;;;;;;6.37;4.50;;;;;;;;;;5096252;28;24421;-55
2021/07/16 05:26:05;;;;;;;5.60;5.10;;;;;;;;;;5090836;28;24572;-55
2021/07/16 05:28:31;;;;;;;4.82;4.43;;;;;;;;;;5087307;28;24425;-55
2021/07/16 05:30:56;;;;;;;4.40;4.10;;;;;;;;;;5087093;28;25007;-55
2021/07/16 05:33:22;;;;;;;5.70;5.20;;;;;;;;;;5087488;28;24401;-55
2021/07/16 05:35:48;;;;;;;6.03;5.40;;;;;;;;;;5084422;28;24449;-55
2021/07/16 05:38:13;;;;;;;4.90;4.50;;;;;;;;;;5086946;28;25013;-55
2021/07/16 05:40:39;;;;;;;5.90;4.90;;;;;;;;;;5087479;28;24389;-56
2021/07/16 05:43:05;;;;;;;4.70;4.30;;;;;;;;;;5087308;28;24401;-55
2021/07/16 05:45:30;;;;;;;4.80;4.47;;;;;;;;;;5085230;28;24401;-55
2021/07/16 05:47:58;;;;;;;3.97;3.67;;;;;;;;;;5097796;28;24441;-56
2021/07/16 05:50:24;;;;;;;4.55;4.15;;;;;;;;;;5099041;28;24416;-56
2021/07/16 05:52:49;;;;;;;4.30;3.90;;;;;;;;;;5097702;28;24421;-56
2021/07/16 05:55:14;;;;;;;4.70;4.30;;;;;;;;;;5099630;28;25022;-56
2021/07/16 05:57:39;;;;;;;4.22;3.92;;;;;;;;;;5073312;28;24414;-57
2021/07/16 06:00:05;;;;;;;3.87;3.57;;;;;;;;;;5077063;28;24747;-58
2021/07/16 06:02:30;;;;;;;4.30;4.00;;;;;;;;;;5074708;28;24468;-57
2021/07/16 06:04:55;;;;;;;4.27;3.97;;;;;;;;;;5090329;28;24445;-56
2021/07/16 06:07:20;;;;;;;4.05;3.75;;;;;;;;;;5097513;28;24468;-56
2021/07/16 06:09:45;;;;;;;4.07;3.80;;;;;;;;;;5096659;28;24494;-56
2021/07/16 06:12:11;;;;;;;3.70;3.50;;;;;;;;;;5099394;28;24422;-56
2021/07/16 06:14:36;;;;;;;4.43;4.03;;;;;;;;;;5098578;28;24978;-56
2021/07/16 06:17:01;;;;;;;4.07;3.77;;;;;;;;;;5093135;28;24437;-56
2021/07/16 06:19:26;;;;;;;3.50;3.20;;;;;;;;;;5098416;28;24470;-56
2021/07/16 06:21:52;;;;;;;4.00;3.53;;;;;;;;;;5109791;28;24874;-54
2021/07/16 06:24:17;;;;;;;6.20;3.70;;;;;;;;;;5102894;28;25192;-56
2021/07/16 06:26:42;;;;;;;4.20;3.80;;;;;;;;;;5106991;28;24412;-55
2021/07/16 06:29:07;;;;;;;4.60;4.10;;;;;;;;;;5084169;28;24421;-56
2021/07/16 06:31:33;;;;;;;5.10;4.23;;;;;;;;;;5070248;28;24418;-55
2021/07/16 06:33:59;;;;;;;4.10;3.80;;;;;;;;;;5070545;28;24434;-56
2021/07/16 06:36:24;;;;;;;4.85;4.35;;;;;;;;;;5073713;28;24533;-56
2021/07/16 06:38:50;;;;;;;3.90;3.60;;;;;;;;;;5092413;28;24497;-56
2021/07/16 06:41:15;;;;;;;4.30;3.90;;;;;;;;;;5096333;28;24474;-56
2021/07/16 06:43:40;;;;;;;4.60;4.10;;;;;;;;;;5102606;28;24424;-55
2021/07/16 06:46:06;;;;;;;4.20;3.80;;;;;;;;;;5105593;28;24430;-55
2021/07/16 06:48:32;;;;;;;4.40;4.00;;;;;;;;;;5091021;28;24413;-56
2021/07/16 06:50:57;;;;;;;4.50;4.10;;;;;;;;;;5096574;28;24403;-56
2021/07/16 06:53:22;;;;;;;4.60;4.20;;;;;;;;;;5093491;28;24414;-55
2021/07/16 06:55:47;;;;;;;4.33;3.93;;;;;;;;;;5095608;28;24609;-56
2021/07/16 06:58:12;;;;;;;3.90;3.60;;;;;;;;;;5101326;28;25223;-56
2021/07/16 07:00:38;;;;;;;4.00;3.70;;;;;;;;;;5093219;28;24463;-56
2021/07/16 07:03:03;;;;;;;4.10;3.70;;;;;;;;;;5101514;28;24429;-56
2021/07/16 07:05:28;;;;;;;4.40;4.10;;;;;;;;;;5101243;28;25308;-56
2021/07/16 07:07:53;;;;;;;4.18;3.85;;;;;;;;;;5096231;28;24421;-55
2021/07/16 07:10:19;;;;;;;4.28;3.90;;;;;;;;;;5090694;28;24844;-56
2021/07/16 07:12:44;;;;;;;4.30;3.90;;;;;;;;;;5093537;28;24418;-55
2021/07/16 07:15:10;;;;;;;4.15;3.80;;;;;;;;;;5088894;28;24482;-55
2021/07/16 07:17:36;;;;;;;3.53;3.22;;;;;;;;;;5089221;28;24448;-56
2021/07/16 07:20:01;;;;;;;4.40;4.10;;;;;;;;;;5090084;28;24427;-55
2021/07/16 07:22:26;;;;;;;3.80;3.50;;;;;;;;;;5078930;28;24409;-56
2021/07/16 07:24:51;;;;;;;4.40;3.70;;;;;;;;;;5086779;28;24780;-55
2021/07/16 07:27:16;;;;;;;3.90;3.60;;;;;;;;;;5102904;28;24507;-55
2021/07/16 07:29:41;;;;;;;4.60;4.20;;;;;;;;;;5094933;28;24939;-55
2021/07/16 07:32:07;;;;;;;4.50;4.10;;;;;;;;;;5087967;28;24422;-56
2021/07/16 07:34:32;;;;;;;4.00;3.70;;;;;;;;;;5098190;28;24409;-56
2021/07/16 07:36:58;;;;;;;4.13;3.70;;;;;;;;;;5098680;28;25076;-55
2021/07/16 07:39:23;;;;;;;4.78;3.60;;;;;;;;;;5090160;28;24422;-56
2021/07/16 07:41:48;;;;;;;3.60;3.30;;;;;;;;;;5093938;28;24417;-55
2021/07/16 07:44:17;;;;;;;4.00;3.60;;;;;;;;;;5106749;28;24473;-55
2021/07/16 07:46:43;;;;;;;3.63;3.43;;;;;;;;;;5099102;28;24430;-56
2021/07/16 07:49:10;;;;;;;4.03;3.72;;;;;;;;;;5090182;28;25019;-56
2021/07/16 07:51:36;;;;;;;4.10;3.70;;;;;;;;;;5070837;28;25051;-56
2021/07/16 07:54:01;;;;;;;3.60;3.40;;;;;;;;;;5095383;28;24505;-54
2021/07/16 07:56:26;;;;;;;3.60;3.40;;;;;;;;;;5091091;28;24428;-55
2021/07/16 07:58:52;;;;;;;3.23;3.00;;;;;;;;;;5091708;28;24421;-55
2021/07/16 08:01:17;;;;;;;3.90;3.70;;;;;;;;;;5095919;28;24447;-54
2021/07/16 08:03:42;;;;;;;3.53;3.23;;;;;;;;;;5068610;28;24418;-55
2021/07/16 08:06:08;;;;;;;3.77;3.30;;;;;;;;;;5078608;28;24414;-55
2021/07/16 08:08:33;;;;;;;4.17;3.87;;;;;;;;;;5089007;28;24402;-55
2021/07/16 08:10:58;;;;;;;3.30;3.10;;;;;;;;;;5094065;28;24437;-55
2021/07/16 08:13:23;;;;;;;3.90;3.67;;;;;;;;;;5093422;28;24410;-56
2021/07/16 08:15:49;;;;;;;3.63;3.43;;;;;;;;;;5093320;28;24445;-56
2021/07/16 08:18:14;;;;;;;3.90;3.70;;;;;;;;;;5086593;28;24797;-56
2021/07/16 08:20:39;;;;;;;4.70;4.30;;;;;;;;;;5094231;28;24420;-55
2021/07/16 08:23:05;;;;;;;4.10;3.90;;;;;;;;;;5068478;28;24561;-56
2021/07/16 08:25:30;;;;;;;3.90;3.60;;;;;;;;;;5093034;28;24507;-56
2021/07/16 08:27:56;;;;;;;4.00;3.70;;;;;;;;;;5101568;28;25000;-55
2021/07/16 08:30:21;;;;;;;4.20;3.90;;;;;;;;;;5096053;28;24946;-55
2021/07/16 08:32:46;;;;;;;4.00;3.70;;;;;;;;;;5095967;28;24784;-55
2021/07/16 08:35:13;;;;;;;4.20;3.90;;;;;;;;;;5088253;28;24974;-55
2021/07/16 08:37:38;;;;;;;4.30;4.00;;;;;;;;;;5089070;28;24386;-56
2021/07/16 08:40:05;;;;;;;3.70;3.50;;;;;;;;;;5089250;28;24823;-56
2021/07/16 08:42:30;;;;;;;4.28;4.05;;;;;;;;;;5086497;28;24490;-56
2021/07/16 08:44:55;;;;;;;4.27;4.07;;;;;;;;;;5088609;28;24747;-55
2021/07/16 08:47:20;;;;;;;4.38;4.07;;;;;;;;;;5088583;28;24449;-56
2021/07/16 08:49:46;;;;;;;4.50;4.20;;;;;;;;;;5088686;28;24401;-56
2021/07/16 08:52:12;;;;;;;4.40;4.00;;;;;;;;;;5088348;28;24398;-56
2021/07/16 08:54:44;;;;;;;4.78;4.38;;;;;;;;;;5086359;28;24525;-56
2021/07/16 08:57:09;;;;;;;3.90;3.60;;;;;;;;;;5088192;28;24951;-56
2021/07/16 08:59:34;;;;;;;6.70;4.60;;;;;;;;;;5088280;28;24459;-55
2021/07/16 09:02:02;;;;;;;4.30;3.90;;;;;;;;;;5088463;28;24494;-55
2021/07/16 09:04:27;;;;;;;3.90;3.60;;;;;;;;;;5085698;28;24410;-56
2021/07/16 09:06:53;;;;;;;4.50;4.20;;;;;;;;;;5088196;28;24424;-55
2021/07/16 09:09:18;;;;;;;4.63;4.20;;;;;;;;;;5088651;28;24887;-55
2021/07/16 09:11:45;;;;;;;4.10;3.80;;;;;;;;;;5087866;28;24430;-55
2021/07/16 09:14:17;;;;;;;4.70;4.30;;;;;;;;;;5090636;28;24558;-56
2021/07/16 09:16:51;;;;;;;4.27;3.97;;;;;;;;;;5083413;28;24441;-55
2021/07/16 09:19:25;;;;;;;4.95;4.40;;;;;;;;;;5076495;28;24394;-57
2021/07/16 09:22:19;;;;;;;4.30;4.00;;;;;;;;;;5108305;28;24894;-56
2021/07/16 09:24:55;;;;;;;4.13;3.83;;;;;;;;;;5079685;28;24437;-55
2021/07/16 09:27:40;;;;;;;3.92;3.63;;;;;;;;;;5097638;28;24559;-56
2021/07/16 09:30:20;;;;;;;4.80;4.40;;;;;;;;;;5087940;28;24420;-56
2021/07/16 09:32:47;;;;;;;4.18;3.88;;;;;;;;;;5088373;28;24447;-55
2021/07/16 09:35:19;;;;;;;4.60;4.30;;;;;;;;;;5095134;28;24427;-55
2021/07/16 09:37:48;;;;;;;4.10;3.90;;;;;;;;;;5089047;28;24409;-55
2021/07/16 09:40:18;;;;;;;3.63;3.33;;;;;;;;;;5083521;28;24456;-55
2021/07/16 09:42:44;;;;;;;4.10;3.83;;;;;;;;;;5085668;28;24438;-56
2021/07/16 09:45:12;;;;;;;3.60;3.30;;;;;;;;;;5088750;28;24511;-55
2021/07/16 09:47:37;;;;;;;4.40;3.80;;;;;;;;;;5086849;28;24418;-55
2021/07/16 09:50:05;;;;;;;4.63;3.70;;;;;;;;;;5088439;28;24429;-56
2021/07/16 09:52:30;;;;;;;4.38;4.03;;;;;;;;;;5091286;28;24423;-56
2021/07/16 09:55:09;;;;;;;4.90;4.60;;;;;;;;;;5085704;28;24995;-56
2021/07/16 09:57:42;;;;;;;4.32;4.00;;;;;;;;;;5086348;28;24513;-56
2021/07/16 10:00:14;;;;;;;4.00;3.80;;;;;;;;;;5084912;28;24473;-56
2021/07/16 10:02:41;;;;;;;3.70;3.40;;;;;;;;;;5103830;28;24424;-56
2021/07/16 10:05:06;;;;;;;4.28;3.90;;;;;;;;;;5102547;28;24586;-56
2021/07/16 10:07:32;;;;;;;3.90;3.70;;;;;;;;;;5076100;28;25095;-56
2021/07/16 10:09:57;;;;;;;3.55;3.35;;;;;;;;;;5066698;28;24417;-56
2021/07/16 10:12:22;;;;;;;4.00;3.70;;;;;;;;;;5070816;28;24442;-56
2021/07/16 10:14:48;;;;;;;4.23;3.97;;;;;;;;;;5067251;28;24440;-55
2021/07/16 10:17:14;;;;;;;3.80;3.60;;;;;;;;;;5077048;28;24434;-56
2021/07/16 10:19:39;;;;;;;4.20;3.90;;;;;;;;;;5086686;28;24891;-56
2021/07/16 10:22:05;;;;;;;3.80;3.50;;;;;;;;;;5075946;28;24505;-56
2021/07/16 10:24:34;;;;;;;4.30;4.00;;;;;;;;;;5070766;28;24824;-56
2021/07/16 10:26:59;;;;;;;4.30;4.10;;;;;;;;;;5084283;28;24433;-55
2021/07/16 10:29:34;;;;;;;4.40;4.10;;;;;;;;;;5084916;28;24411;-55
2021/07/16 10:32:00;;;;;;;4.03;3.72;;;;;;;;;;5094629;28;24455;-55
2021/07/16 10:34:28;;;;;;;4.70;4.40;;;;;;;;;;5098686;28;24418;-55
2021/07/16 10:36:56;;;;;;;4.65;4.35;;;;;;;;;;5065130;28;24932;-56
2021/07/16 10:39:40;;;;;;;4.50;4.20;;;;;;;;;;5084279;28;24471;-56
2021/07/16 10:42:23;;;;;;;4.43;4.13;;;;;;;;;;5105600;28;24397;-56
2021/07/16 10:44:49;;;;;;;4.80;4.50;;;;;;;;;;5106169;28;24436;-56
2021/07/16 10:47:32;;;;;;;4.10;3.80;;;;;;;;;;5106986;28;24414;-55
2021/07/16 10:49:57;;;;;;;4.47;4.18;;;;;;;;;;5085888;28;24839;-56
2021/07/16 10:52:39;;;;;;;4.27;4.07;;;;;;;;;;5087461;28;24405;-56
2021/07/16 10:55:05;;;;;;;4.30;4.10;;;;;;;;;;5103963;28;24520;-56
2021/07/16 10:57:37;;;;;;;4.60;4.30;;;;;;;;;;5108427;28;24509;-56
2021/07/16 11:00:03;;;;;;;4.20;3.90;;;;;;;;;;5085679;28;24506;-56
2021/07/16 11:02:40;;;;;;;4.50;4.20;;;;;;;;;;5102204;28;24509;-55
2021/07/16 11:05:24;;;;;;;4.63;4.32;;;;;;;;;;5102336;28;24410;-56
2021/07/16 11:07:49;;;;;;;4.80;4.50;;;;;;;;;;5110090;28;24449;-55
2021/07/16 11:10:33;;;;;;;5.75;5.25;;;;;;;;;;5091228;28;24503;-56
2021/07/16 11:13:18;;;;;;;5.15;4.82;;;;;;;;;;5091552;28;24974;-56
2021/07/16 11:15:43;;;;;;;5.10;4.80;;;;;;;;;;5078945;28;24442;-56
2021/07/16 11:18:12;;;;;;;5.22;4.93;;;;;;;;;;5093000;28;24991;-56
2021/07/16 11:20:39;;;;;;;5.50;5.20;;;;;;;;;;5095874;28;24413;-56
2021/07/16 11:23:05;;;;;;;5.60;5.20;;;;;;;;;;5108600;28;24443;-56
2021/07/16 11:25:30;;;;;;;7.53;7.00;;;;;;;;;;5104580;28;24421;-56
2021/07/16 11:27:56;;;;;;;8.57;7.77;;;;;;;;;;5094680;28;24418;-56
2021/07/16 11:30:22;;;;;;;7.78;7.28;;;;;;;;;;5087641;28;24421;-56
2021/07/16 11:32:47;;;;;;;8.20;7.60;;;;;;;;;;5067160;28;24608;-56
2021/07/16 11:35:13;;;;;;;7.80;7.30;;;;;;;;;;5077627;28;24487;-56
2021/07/16 11:37:41;;;;;;;8.32;7.82;;;;;;;;;;5107129;28;24474;-56
2021/07/16 11:40:07;;;;;;;8.77;8.18;;;;;;;;;;5104841;28;24505;-56
2021/07/16 11:42:33;;;;;;;9.17;8.47;;;;;;;;;;5093180;28;24497;-55
2021/07/16 11:44:58;;;;;;;8.80;8.20;;;;;;;;;;5098177;28;24780;-56
2021/07/16 11:47:25;;;;;;;8.55;8.05;;;;;;;;;;5086275;28;24954;-55
2021/07/16 11:49:50;;;;;;;7.93;7.43;;;;;;;;;;5087413;28;24422;-56
2021/07/16 11:52:24;;;;;;;8.43;7.80;;;;;;;;;;5079738;28;24459;-56
2021/07/16 11:54:51;;;;;;;8.55;7.95;;;;;;;;;;5066197;28;24394;-56
2021/07/16 11:57:17;;;;;;;8.20;7.60;;;;;;;;;;5087727;28;24475;-56
2021/07/16 11:59:45;;;;;;;7.73;7.23;;;;;;;;;;5089783;28;24449;-56
2021/07/16 12:02:12;;;;;;;6.73;6.23;;;;;;;;;;5097271;28;24430;-55
2021/07/16 12:04:41;;;;;;;7.28;6.88;;;;;;;;;;5087908;28;24421;-56
2021/07/16 12:07:07;;;;;;;7.20;6.70;;;;;;;;;;5066249;28;24793;-55
2021/07/16 12:09:33;;;;;;;8.57;7.88;;;;;;;;;;5084973;28;24430;-56
2021/07/16 12:12:02;;;;;;;7.40;6.80;;;;;;;;;;5087808;28;24414;-55
2021/07/16 12:14:27;;;;;;;8.10;7.40;;;;;;;;;;5094423;28;24466;-55
2021/07/16 12:16:52;;;;;;;7.70;7.20;;;;;;;;;;5104650;28;24434;-56
2021/07/16 12:19:18;;;;;;;7.20;6.70;;;;;;;;;;5100043;27;24780;-55
2021/07/16 12:21:43;;;;;;;6.77;6.27;;;;;;;;;;5094355;28;24963;-56
2021/07/16 12:24:08;;;;;;;8.10;7.00;;;;;;;;;;5083808;28;24777;-56
2021/07/16 12:26:34;;;;;;;7.17;6.67;;;;;;;;;;5087157;28;24990;-56
2021/07/16 12:29:06;;;;;;;7.70;7.20;;;;;;;;;;5087569;28;24975;-56
2021/07/16 12:31:34;;;;;;;7.07;6.55;;;;;;;;;;5085290;28;24438;-56
2021/07/16 12:34:00;;;;;;;6.20;5.80;;;;;;;;;;5092043;28;24482;-56
2021/07/16 12:36:27;;;;;;;8.87;8.17;;;;;;;;;;5085863;28;24426;-56
2021/07/16 12:38:53;;;;;;;8.80;8.10;;;;;;;;;;5086225;28;24439;-56
2021/07/16 12:41:20;;;;;;;8.27;7.67;;;;;;;;;;5089924;28;24418;-56
2021/07/16 12:43:45;;;;;;;8.48;7.75;;;;;;;;;;5094403;28;24500;-56
2021/07/16 12:46:10;;;;;;;8.40;7.80;;;;;;;;;;5095719;28;24509;-56
2021/07/16 12:48:37;;;;;;;8.50;7.90;;;;;;;;;;5086720;28;24414;-56
2021/07/16 12:51:02;;;;;;;8.75;8.15;;;;;;;;;;5091558;28;24417;-56
2021/07/16 12:53:33;;;;;;;9.00;8.30;;;;;;;;;;5106106;28;24382;-56
2021/07/16 12:56:11;;;;;;;9.63;8.93;;;;;;;;;;5086981;28;24422;-55
2021/07/16 12:58:36;;;;;;;9.67;8.97;;;;;;;;;;5087544;28;24390;-55
2021/07/16 13:01:02;;;;;;;9.30;8.60;;;;;;;;;;5086143;28;24523;-55
2021/07/16 13:03:28;;;;;;;9.90;9.20;;;;;;;;;;5074565;28;24430;-56
2021/07/16 13:05:53;;;;;;;9.80;9.00;;;;;;;;;;5077494;28;24498;-56
2021/07/16 13:08:25;;;;;;;9.80;8.90;;;;;;;;;;5087655;28;24414;-55
2021/07/16 13:10:57;;;;;;;9.87;9.20;;;;;;;;;;5070347;28;24438;-55
2021/07/16 13:13:24;;;;;;;10.02;9.13;;;;;;;;;;5074147;28;24431;-55
2021/07/16 13:16:09;;;;;;;9.70;9.00;;;;;;;;;;5098307;28;24438;-55
2021/07/16 13:18:34;;;;;;;9.88;9.23;;;;;;;;;;5087946;28;24427;-55
2021/07/16 13:20:59;;;;;;;9.63;8.93;;;;;;;;;;5109084;28;24442;-55
2021/07/16 13:23:24;;;;;;;9.90;9.10;;;;;;;;;;5101427;28;24695;-55
2021/07/16 13:25:56;;;;;;;10.20;9.40;;;;;;;;;;5089627;28;24419;-55
2021/07/16 13:28:21;;;;;;;8.70;8.10;;;;;;;;;;5086951;28;24430;-55
2021/07/16 13:30:46;;;;;;;10.10;9.30;;;;;;;;;;5098467;28;24970;-55
2021/07/16 13:33:15;;;;;;;10.43;9.63;;;;;;;;;;5086375;28;24421;-56
2021/07/16 13:35:40;;;;;;;10.50;9.80;;;;;;;;;;5097304;27;24507;-56
2021/07/16 13:38:05;;;;;;;11.02;10.05;;;;;;;;;;5073700;28;25204;-56
2021/07/16 13:40:30;;;;;;;9.65;8.85;;;;;;;;;;5084650;28;24407;-56
2021/07/16 13:42:55;;;;;;;9.15;8.55;;;;;;;;;;5083151;28;24411;-56
2021/07/16 13:45:20;;;;;;;9.90;9.10;;;;;;;;;;5077157;28;25003;-56
2021/07/16 13:47:46;;;;;;;10.60;9.60;;;;;;;;;;5077020;28;24417;-56
2021/07/16 13:50:11;;;;;;;9.73;9.03;;;;;;;;;;5096592;28;24410;-56
2021/07/16 13:52:36;;;;;;;9.43;8.83;;;;;;;;;;5084375;28;24461;-56
2021/07/16 13:55:02;;;;;;;9.23;8.43;;;;;;;;;;5089284;28;24416;-56
2021/07/16 13:57:27;;;;;;;9.80;9.10;;;;;;;;;;5102346;28;24429;-56
2021/07/16 13:59:52;;;;;;;13.13;12.23;;;;;;;;;;5087407;28;24990;-56
2021/07/16 14:02:17;;;;;;;10.47;9.67;;;;;;;;;;5088308;28;24548;-56
2021/07/16 14:04:42;;;;;;;9.60;8.90;;;;;;;;;;5092934;28;24425;-56
2021/07/16 14:07:08;;;;;;;10.40;9.60;;;;;;;;;;5087438;28;25176;-56
2021/07/16 14:09:33;;;;;;;9.90;9.20;;;;;;;;;;5086778;28;24978;-57
2021/07/16 14:11:59;;;;;;;9.90;9.10;;;;;;;;;;5087295;28;24501;-57
2021/07/16 14:14:24;;;;;;;9.63;8.93;;;;;;;;;;5094130;28;24978;-56
2021/07/16 14:16:49;;;;;;;10.43;9.53;;;;;;;;;;5079267;28;25093;-56
2021/07/16 14:19:14;;;;;;;11.20;10.40;;;;;;;;;;5090799;28;24426;-56
2021/07/16 14:21:39;;;;;;;10.20;9.40;;;;;;;;;;5104140;28;24405;-56
2021/07/16 14:24:05;;;;;;;13.40;12.40;;;;;;;;;;5082439;28;24403;-56
2021/07/16 14:26:30;;;;;;;11.60;10.80;;;;;;;;;;5083248;28;24525;-56
2021/07/16 14:28:55;;;;;;;10.47;9.77;;;;;;;;;;5089343;28;24960;-56
2021/07/16 14:31:21;;;;;;;9.83;9.13;;;;;;;;;;5096242;28;25199;-56
2021/07/16 14:33:46;;;;;;;9.07;8.38;;;;;;;;;;5079934;28;24419;-56
2021/07/16 14:36:11;;;;;;;8.67;8.07;;;;;;;;;;5071259;28;24540;-56